Terminal Aerodrome Forecast
Issued by NWS

Home | Current Version | Previous Version | Text Only | Print | Product List | Glossary On
Versions: 1 2 3 4 5 6 7 8 9 10 11 12
000
FTUS43 KMQT 290520
TAFCMX
TAF
KCMX 290520Z 2906/3006 20009KT P6SM BKN150 WS015/21035KT
     FM291400 20015G25KT 5SM -FZRASN OVC035
     FM291500 21015G25KT 2SM -SN OVC015
     FM291900 24013G23KT 4SM -RASN OVC007
     FM292100 29022G35KT 6SM -RASN OVC015
     FM300200 30020G30KT P6SM VCSH OVC025
     FM300400 29017G27KT P6SM BKN035=

USA.gov is the U.S. government's official web portal to all federal, state and local government web resources and services.